Latest Coastal Weather Observations for St Helens

IDT60701

Issued at 10:52 pm EDT Friday 23 October 2020 (issued every 10 minutes, with the page automatically refreshed every 10 minutes)

About coastal observations | Map of coastal stations | Coastal observations for TAS | Marine services | Other Formats
Station Details ID: 092120 Name: ST HELENS AERODROME Lat: -41.34 Lon: 148.28 Height: 48.0 m
Data from the previous 72 hours. | See also: Recent months at St Helens
Date/Time
EDT
Wind Sea
Height
m
Swell Vis
km
Cloud Weather Temp
°C
Press
MSL
hPa
Rain since
9am
mm
Dir  Spd
kts
Gust
kts
Height
m
Period
s
Dir
23/10:32pm NNE 3 5 - - - - 10 Partly cloudy - 14.2 1005.5 0.2
23/10:30pm NNE 4 6 - - - - 10 Partly cloudy - 14.2 1005.5 0.2
23/10:00pm NNW 6 8 - - - - 10 Partly cloudy - 14.4 1005.9 0.2
23/09:50pm N 6 7 - - - - 10 Partly cloudy - 14.3 1006.0 0.2
23/09:30pm N 5 7 - - - - 10 Partly cloudy - 14.2 1006.2 0.2
23/09:03pm N 4 6 - - - - 10 Partly cloudy - 14.4 1006.2 0.2
23/09:00pm NNW 4 6 - - - - 10 Cloudy - 14.5 1006.2 0.2
23/08:45pm N 4 7 - - - - 10 Partly cloudy - 14.4 1006.1 0.2
23/08:30pm N 4 7 - - - - 10 Partly cloudy - 14.2 1006.0 0.2
23/08:00pm N 6 9 - - - - 10 Partly cloudy - 14.2 1005.9 0.2
23/07:30pm N 6 8 - - - - 10 Partly cloudy - 14.4 1005.9 0.2
23/07:00pm N 4 6 - - - - 10 Partly cloudy - 15.2 1005.9 0.2
23/06:30pm N 5 8 - - - - 10 Partly cloudy - 15.3 1005.8 0.2
23/06:00pm NE 5 8 - - - - 10 Cloudy - 14.6 1006.2 0.0
23/05:30pm NNE 7 10 - - - - 10 Partly cloudy - 14.5 1006.3 0.0
23/05:00pm NNW 5 9 - - - - 10 Partly cloudy - 15.5 1006.4 0.0
23/04:30pm WNW 6 11 - - - - 10 Partly cloudy - 15.2 1006.8 0.0
23/04:00pm NNW 7 12 - - - - 10 Partly cloudy - 15.2 1006.7 0.0
23/03:30pm NNW 7 11 - - - - 10 Partly cloudy - 15.4 1007.2 0.0
23/03:00pm NNW 8 17 - - - - 10 Cloudy - 15.2 1007.8 0.0
23/02:37pm NNW 8 10 - - - - 10 Partly cloudy - 14.9 1008.1 0.0
23/02:30pm NNW 7 10 - - - - 10 Partly cloudy - 15.0 1008.2 0.0
23/02:00pm N 5 8 - - - - 10 Partly cloudy - 14.1 1008.6 0.0
23/01:59pm N 6 8 - - - - 10 Partly cloudy - 14.0 1008.6 0.0
23/01:30pm N 5 8 - - - - 10 Cloudy - 14.0 1008.7 0.0
23/01:00pm N 5 8 - - - - 10 Cloudy - 13.7 1009.0 0.0
23/12:30pm NNW 3 6 - - - - 10 Cloudy - 13.7 1009.4 0.0
23/12:00pm NW 4 7 - - - - 10 Mostly cloudy - 13.9 1009.9 0.0
23/11:30am NNW 5 8 - - - - 10 Cloudy - 14.2 1010.3 0.0
23/11:00am N 7 11 - - - - 10 Partly cloudy - 14.2 1010.6 0.0
23/10:30am NNW 7 12 - - - - 10 Partly cloudy - 13.7 1011.0 0.0
23/10:00am NW 4 5 - - - - 10 Partly cloudy - 13.1 1011.3 0.0
23/09:30am CALM 0 0 - - - - 10 Partly cloudy - 11.6 1011.5 0.0
23/09:00am CALM 0 3 - - - - 25 Cloudy Fine 10.9 1011.5 0.0
23/08:30am NNW 3 4 - - - - 10 Cloudy - 10.1 1011.9 0.0
23/08:00am CALM 0 3 - - - - 10 Partly cloudy - 9.9 1012.1 0.0
23/07:30am SW 1 4 - - - - 10 - - 9.3 1011.9 0.0
23/07:00am NW 3 4 - - - - 10 - - 9.2 1011.8 0.0
23/06:30am CALM 0 4 - - - - 10 - - 8.8 1011.7 0.0
23/06:00am NW 3 4 - - - - 10 - - 8.9 1011.5 0.0
23/05:41am CALM 0 3 - - - - 10 Partly cloudy - 8.7 1011.7 0.0
23/05:30am SW 1 4 - - - - 10 Partly cloudy - 8.7 1011.7 0.0
23/05:11am NE 3 5 - - - - 10 Partly cloudy - 8.8 1011.8 0.0
23/05:00am NNW 5 6 - - - - 10 Partly cloudy - 9.0 1012.0 0.0
23/04:30am NNW 5 6 - - - - 10 - - 9.1 1011.9 0.0
23/04:00am NW 4 5 - - - - 10 - - 9.3 1012.0 0.0
23/03:30am NNW 5 6 - - - - 10 - - 9.6 1012.6 0.0
23/03:00am NW 2 4 - - - - 10 - - 9.6 1013.0 0.0
23/02:30am CALM 0 2 - - - - 10 - - 9.7 1013.6 0.0
23/02:00am N 1 5 - - - - 10 - - 10.0 1014.1 0.0
23/01:30am NW 3 5 - - - - 10 - - 10.1 1014.6 0.0
23/01:00am NW 5 6 - - - - 10 - - 10.2 1014.8 0.0
23/12:30am NNW 5 6 - - - - 10 Partly cloudy - 10.2 1015.2 0.0
23/12:00am NW 5 6 - - - - 10 Mostly clear - 10.6 1015.7 0.0
 
Date/Time
EDT
Wind Sea
Height
m
Swell Vis
km
Cloud Weather Temp
°C
Press
MSL
hPa
Rain since
9am
mm
Dir  Spd
kts
Gust
kts
Height
m
Period
s
Dir
22/11:30pm NW 5 6 - - - - 10 - - 10.9 1015.9 0.0
22/11:00pm NW 4 5 - - - - 10 - - 11.2 1016.2 0.0
22/10:30pm CALM 0 4 - - - - 10 - - 11.6 1016.2 0.0
22/10:00pm WNW 1 3 - - - - 10 Partly cloudy - 11.8 1016.4 0.0
22/09:30pm CALM 0 3 - - - - 10 Partly cloudy - 11.7 1016.2 0.0
22/09:00pm CALM 0 3 - - - - 10 Mostly clear - 11.9 1016.1 0.0
22/08:30pm ESE 1 4 - - - - 10 Partly cloudy - 12.2 1016.0 0.0
22/08:00pm CALM 0 0 - - - - 10 Partly cloudy - 12.5 1015.9 0.0
22/07:30pm CALM 0 0 - - - - 10 Partly cloudy - 12.8 1016.2 0.0
22/07:00pm ESE 2 4 - - - - 10 Partly cloudy - 13.3 1015.9 0.0
22/06:30pm ESE 3 6 - - - - 10 Cloudy - 14.5 1015.8 0.0
22/06:00pm SSE 4 9 - - - - 10 Cloudy - 14.0 1015.6 0.0
22/05:30pm S 5 10 - - - - 10 Partly cloudy - 14.4 1015.5 0.0
22/05:00pm SE 5 10 - - - - 10 Partly cloudy - 14.9 1015.5 0.0
22/04:30pm ESE 4 6 - - - - 10 Cloudy - 15.0 1015.8 0.0
22/04:00pm E 4 7 - - - - 10 Partly cloudy - 14.1 1016.1 0.0
22/03:59pm E 4 7 - - - - 10 Partly cloudy - 14.0 1016.1 0.0
22/03:40pm SE 3 6 - - - - 10 Partly cloudy - 14.0 1016.1 0.0
22/03:35pm E 4 8 - - - - 10 Partly cloudy - 14.5 1016.1 0.0
22/03:30pm ENE 5 8 - - - - 10 Partly cloudy - 14.2 1016.1 0.0
22/03:19pm E 5 7 - - - - 10 Partly cloudy - 14.1 1016.1 0.0
22/03:18pm E 4 7 - - - - 10 Partly cloudy - 14.1 1016.1 0.0
22/03:00pm E 5 9 - - - - 10 Cloudy - 12.9 1016.2 0.0
22/02:30pm ENE 12 16 - - - - 10 Partly cloudy - 14.1 1016.2 0.0
22/02:17pm E 9 16 - - - - 10 Partly cloudy - 14.7 1016.4 0.0
22/02:00pm ESE 6 11 - - - - 10 Partly cloudy - 15.8 1016.5 0.0
22/01:30pm SSE 5 11 - - - - 10 Cloudy - 14.9 1016.5 0.0
22/01:00pm SSE 7 12 - - - - 10 Cloudy - 13.8 1016.7 0.0
22/12:30pm S 7 11 - - - - 10 Partly cloudy - 14.4 1016.8 0.0
22/12:00pm SE 5 11 - - - - 10 Mostly cloudy - 15.3 1016.7 0.0
22/11:30am SSE 7 11 - - - - 10 Cloudy - 14.8 1017.1 0.0
22/11:00am SSE 7 15 - - - - 10 Partly cloudy - 14.8 1017.2 0.0
22/10:30am S 9 15 - - - - 10 Partly cloudy - 14.4 1017.2 0.0
22/10:00am SSE 8 13 - - - - 10 Partly cloudy - 14.1 1017.1 0.0
22/09:30am S 7 11 - - - - 10 Partly cloudy - 13.2 1017.2 0.0
22/09:00am S 7 11 - - - - 25 Mostly cloudy Distant precip. 12.9 1017.1 0.0
22/08:30am SSE 7 11 - - - - 10 Partly cloudy - 12.8 1017.0 0.0
22/08:00am S 5 11 - - - - 10 Cloudy - 12.6 1016.8 0.0
22/07:30am S 7 10 - - - - 10 Cloudy - 12.1 1016.5 0.0
22/07:00am S 7 11 - - - - 10 Partly cloudy - 11.3 1016.4 0.0
22/06:30am S 7 10 - - - - 10 Partly cloudy - 10.5 1016.0 0.0
22/06:00am SSE 7 10 - - - - 10 Partly cloudy - 10.9 1015.7 0.0
22/05:30am S 7 9 - - - - 10 Cloudy - 11.1 1015.6 0.0
22/05:00am S 7 11 - - - - 10 Cloudy - 11.1 1015.5 0.0
22/04:30am S 5 8 - - - - 10 Partly cloudy - 11.1 1015.5 0.0
22/04:00am S 5 8 - - - - 10 Partly cloudy - 11.3 1015.3 0.0
22/03:30am S 4 7 - - - - 10 Partly cloudy - 11.8 1015.3 0.0
22/03:00am S 5 7 - - - - 10 Mostly cloudy - 12.0 1015.5 0.0
22/02:30am S 5 7 - - - - 10 Cloudy - 12.0 1015.5 0.0
22/02:00am S 4 6 - - - - 10 Cloudy - 12.0 1015.6 0.0
22/01:30am S 5 7 - - - - 10 Cloudy - 12.1 1015.8 0.0
22/01:00am S 5 7 - - - - 10 Partly cloudy - 12.1 1015.9 0.0
22/12:30am S 4 6 - - - - 10 Cloudy - 11.9 1015.8 0.0
22/12:00am SSW 4 5 - - - - 10 Cloudy - 11.7 1015.9 0.0
 
Date/Time
EDT
Wind Sea
Height
m
Swell Vis
km
Cloud Weather Temp
°C
Press
MSL
hPa
Rain since
9am
mm
Dir  Spd
kts
Gust
kts
Height
m
Period
s
Dir
21/11:30pm S 4 6 - - - - 10 Partly cloudy - 12.0 1015.9 0.0
21/11:00pm S 4 6 - - - - 10 Cloudy - 12.2 1015.9 0.0
21/10:30pm S 4 6 - - - - 10 Partly cloudy - 12.2 1015.7 0.0
21/10:00pm S 3 5 - - - - 10 Cloudy - 12.3 1015.9 0.0
21/09:30pm S 5 8 - - - - 10 Cloudy - 12.4 1015.7 0.0
21/09:00pm S 3 5 - - - - 10 Cloudy - 12.4 1015.6 0.0
21/08:30pm S 4 6 - - - - 10 Partly cloudy - 12.3 1015.2 0.0
21/08:00pm S 4 6 - - - - 10 Partly cloudy - 12.6 1014.8 0.0
21/07:30pm S 3 7 - - - - 10 Cloudy - 13.0 1014.6 0.0
21/07:00pm SSE 4 7 - - - - 10 Cloudy - 13.2 1014.4 0.0
21/06:30pm SSE 5 9 - - - - 10 Partly cloudy - 13.4 1014.3 0.0
21/06:13pm S 3 6 - - - - 10 Partly cloudy - 13.3 1014.4 0.0
21/06:00pm SSE 5 9 - - - - 10 Cloudy - 13.3 1014.2 0.0
21/05:30pm SE 6 10 - - - - 10 Partly cloudy - 13.8 1013.9 0.0
21/05:26pm SE 6 11 - - - - 10 Partly cloudy - 14.0 1014.0 0.0
21/05:00pm ESE 5 10 - - - - 10 Partly cloudy - 14.3 1014.0 0.0
21/04:30pm SSE 5 9 - - - - 10 Cloudy - 14.1 1014.0 0.0
21/04:00pm SSE 4 9 - - - - 10 Partly cloudy - 13.6 1014.2 0.0
21/03:30pm SSE 7 12 - - - - 10 Partly cloudy - 14.8 1014.2 0.0
21/03:00pm SE 5 11 - - - - 10 Cloudy - 13.7 1014.1 0.0
21/02:30pm SSE 6 9 - - - - 10 Partly cloudy - 14.0 1014.5 0.0
21/02:00pm SE 5 9 - - - - 10 Partly cloudy - 14.8 1014.7 0.0
21/01:30pm ESE 4 8 - - - - 10 Partly cloudy - 14.4 1014.6 0.0
21/01:00pm ESE 6 9 - - - - 10 Partly cloudy - 15.3 1014.7 0.0
21/12:30pm SE 5 10 - - - - 10 Partly cloudy - 15.7 1014.9 0.0
21/12:00pm E 5 8 - - - - 10 Cloudy - 16.0 1015.1 0.0
21/11:30am ESE 3 8 - - - - 10 Partly cloudy - 14.9 1015.5 0.0
21/11:00am ENE 4 6 - - - - 10 Partly cloudy - 14.3 1015.7 0.0
21/10:30am SE 2 4 - - - - 10 Partly cloudy - 13.9 1015.7 0.0
21/10:00am SE 1 4 - - - - 10 Cloudy - 13.7 1015.7 0.0
21/09:30am CALM 0 0 - - - - 10 Cloudy - 13.1 1015.6 0.0
21/09:00am NW 3 5 - - - - 25 Mostly cloudy Fine 12.5 1015.6 0.0
21/08:30am NW 4 5 - - - - 10 Partly cloudy - 11.6 1015.6 0.0
21/08:00am NNW 4 5 - - - - 10 - - 10.4 1015.5 0.0
21/07:30am CALM 0 0 - - - - 10 - - 9.6 1015.4 0.0
21/07:00am NW 3 4 - - - - 10 - - 9.1 1015.4 0.0
21/06:30am N 4 5 - - - - 10 - - 9.3 1015.1 0.0
21/06:00am E 2 3 - - - - 10 - - 8.7 1014.9 0.0
21/05:30am WSW 1 4 - - - - 10 - - 9.4 1014.9 0.0
21/05:00am NNW 3 5 - - - - 10 - - 10.1 1014.8 0.0
21/04:30am NW 4 7 - - - - 10 - - 10.2 1014.7 0.0
21/04:00am NW 4 7 - - - - 10 - - 10.2 1014.6 0.0
21/03:30am NNW 7 9 - - - - 10 - - 10.6 1014.7 0.0
21/03:00am N 4 5 - - - - 10 - - 10.2 1014.9 0.0
21/02:30am NW 5 8 - - - - 10 - - 10.3 1014.9 0.0
21/02:00am NW 6 9 - - - - 10 - - 10.3 1015.1 0.0
21/01:30am NW 5 7 - - - - 10 - - 10.3 1015.3 0.0
21/01:00am WNW 7 9 - - - - 10 - - 10.5 1015.4 0.0
21/12:30am NW 7 9 - - - - 10 - - 10.6 1015.3 0.0
21/12:00am WNW 5 8 - - - - 10 - - 10.9 1015.2 0.0
 
Date/Time
EDT
Wind Sea
Height
m
Swell Vis
km
Cloud Weather Temp
°C
Press
MSL
hPa
Rain since
9am
mm
Dir  Spd
kts
Gust
kts
Height
m
Period
s
Dir
20/11:30pm WNW 5 8 - - - - 10 - - 11.1 1015.1 0.0
20/11:00pm WNW 7 11 - - - - 10 - - 11.6 1015.1 0.0

Other formats

Comma delimited format used in spreadsheet applications
http://www.bom.gov.au/fwo/IDT60701/IDT60701.95981.axf

JavaScript Object Notation format (JSON) in row-major order
http://www.bom.gov.au/fwo/IDT60701/IDT60701.95981.json

Data quality

Most of these data are generated automatically and are frequently updated. Quality checks on data are not normally performed. It is possible for incorrect values to appear. Refer to information at About Latest Weather Observations and please check the disclaimer before using these data.